Time;durP1;ratioP1;P1;durP2;ratioP2;P2;SDS_P1;SDS_P2;PMS_P1;PMS_P2;Temp;Humidity;BMP_temperature;BMP_pressure;BME280_temperature;BME280_humidity;BME280_pressure;Samples;Min_cycle;Max_cycle;Signal;HPM_P1;HPM_P2
2022/05/25 00:00:45;;;;;;;;;;;26.10;46.80;;;;;;1591798;73;1171;-60
2022/05/25 00:02:47;;;;;;;;;;;26.10;46.80;;;;;;1595078;73;677;-59
2022/05/25 00:04:49;;;;;;;;;;;26.10;46.80;;;;;;1588922;73;1364;-59
2022/05/25 00:06:50;;;;;;;;;;;26.20;46.80;;;;;;1593739;73;1926;-60
2022/05/25 00:08:52;;;;;;;;;;;26.10;46.80;;;;;;1604576;73;789;-60
2022/05/25 00:10:54;;;;;;;;;;;26.20;46.90;;;;;;1578416;73;1070;-60
2022/05/25 00:12:56;;;;;;;;;;;26.10;46.90;;;;;;1574035;73;738;-60
2022/05/25 00:14:58;;;;;;;;;;;26.20;46.90;;;;;;1601358;73;838;-60
2022/05/25 00:17:00;;;;;;;;;;;26.10;46.90;;;;;;1599808;73;698;-60
2022/05/25 00:21:22;;;;;;;;;;;26.10;46.90;;;;;;1579254;73;1676;-59
2022/05/25 00:23:24;;;;;;;;;;;26.10;46.90;;;;;;1604965;73;937;-60
2022/05/25 00:25:33;;;;;;;;;;;26.10;46.90;;;;;;1590361;73;1941;-60
2022/05/25 00:27:30;;;;;;;;;;;26.20;46.80;;;;;;1583720;73;1608;-59
2022/05/25 00:29:32;;;;;;;;;;;26.10;46.90;;;;;;1598732;73;799;-60
2022/05/25 00:31:35;;;;;;;;;;;26.20;46.90;;;;;;1602147;73;1129;-59
2022/05/25 00:33:36;;;;;;;;;;;26.10;46.90;;;;;;1599872;73;1599;-60
2022/05/25 00:35:39;;;;;;;;;;;26.10;46.90;;;;;;1606252;73;702;-60
2022/05/25 00:37:41;;;;;;;;;;;26.10;46.90;;;;;;1605931;73;753;-58
2022/05/25 00:39:43;;;;;;;;;;;26.10;46.90;;;;;;1607726;73;767;-59
2022/05/25 00:41:44;;;;;;;;;;;26.10;46.90;;;;;;1589751;73;1104;-59
2022/05/25 00:43:46;;;;;;;;;;;26.10;46.80;;;;;;1575449;73;691;-59
2022/05/25 00:45:50;;;;;;;;;;;26.10;46.90;;;;;;1597719;73;1908;-59
2022/05/25 00:47:52;;;;;;;;;;;26.10;46.90;;;;;;1588729;73;1785;-60
2022/05/25 00:49:54;;;;;;;;;;;26.10;46.80;;;;;;1593867;73;703;-60
2022/05/25 00:51:57;;;;;;;;;;;26.00;46.80;;;;;;1594219;73;667;-60
2022/05/25 00:54:00;;;;;;;;;;;26.10;46.80;;;;;;1593356;73;1823;-59
2022/05/25 00:56:02;;;;;;;;;;;26.10;46.80;;;;;;1605984;73;726;-60
2022/05/25 00:58:04;;;;;;;;;;;26.00;46.80;;;;;;1589836;73;689;-60
2022/05/25 01:00:10;;;;;;;;;;;26.00;46.80;;;;;;1556480;75;1372;-60
2022/05/25 01:02:12;;;;;;;;;;;26.10;46.80;;;;;;1590060;73;1726;-59
2022/05/25 01:04:14;;;;;;;;;;;26.10;46.80;;;;;;1590849;73;740;-60
2022/05/25 01:06:27;;;;;;;;;;;26.10;46.70;;;;;;1592421;73;1908;-60
2022/05/25 01:08:37;;;;;;;;;;;26.10;46.70;;;;;;1590378;73;692;-60
2022/05/25 01:10:52;;;;;;;;;;;26.10;46.80;;;;;;1569269;75;1404;-59
2022/05/25 01:13:08;;;;;;;;;;;26.00;46.80;;;;;;1505006;73;1081;-60
2022/05/25 01:15:12;;;;;;;;;;;26.10;46.80;;;;;;1592109;73;1518;-61
2022/05/25 01:17:27;;;;;;;;;;;26.00;46.80;;;;;;1592718;73;2107;-60
2022/05/25 01:19:40;;;;;;;;;;;26.00;46.80;;;;;;1593434;73;810;-60
2022/05/25 01:21:46;;;;;;;;;;;26.10;46.90;;;;;;1587259;73;1108;-59
2022/05/25 01:23:53;;;;;;;;;;;26.10;46.80;;;;;;1606566;73;968;-59
2022/05/25 01:25:56;;;;;;;;;;;26.10;46.80;;;;;;1589430;73;1941;-59
2022/05/25 01:27:59;;;;;;;;;;;26.00;46.80;;;;;;1583449;73;1596;-60
2022/05/25 01:30:14;;;;;;;;;;;26.10;46.80;;;;;;1596231;72;1454;-60
2022/05/25 01:32:24;;;;;;;;;;;26.00;46.80;;;;;;1606776;73;1629;-60
2022/05/25 01:34:39;;;;;;;;;;;26.00;46.80;;;;;;1597069;73;1938;-60
2022/05/25 01:36:46;;;;;;;;;;;26.10;46.80;;;;;;1512993;73;1253;-59
2022/05/25 01:38:49;;;;;;;;;;;26.00;46.80;;;;;;1598523;73;755;-60
2022/05/25 01:40:53;;;;;;;;;;;26.00;46.80;;;;;;1591002;72;1136;-60
2022/05/25 01:42:56;;;;;;;;;;;26.00;46.90;;;;;;1583062;73;1508;-58
2022/05/25 01:45:02;;;;;;;;;;;26.00;46.80;;;;;;1588571;73;930;-59
2022/05/25 01:47:06;;;;;;;;;;;26.00;46.80;;;;;;1578037;73;1923;-59
2022/05/25 01:49:09;;;;;;;;;;;25.90;46.30;;;;;;1586267;73;930;-59
2022/05/25 01:51:12;;;;;;;;;;;26.00;46.90;;;;;;1590422;73;1149;-59
2022/05/25 01:53:15;;;;;;;;;;;26.00;46.80;;;;;;1590421;73;615;-59
2022/05/25 01:55:19;;;;;;;;;;;26.00;46.90;;;;;;1588668;73;819;-59
2022/05/25 01:57:22;;;;;;;;;;;26.00;47.00;;;;;;1589743;73;1540;-60
2022/05/25 01:59:24;;;;;;;;;;;26.00;47.00;;;;;;1589914;73;1920;-60
2022/05/25 02:01:26;;;;;;;;;;;26.00;46.90;;;;;;1582021;73;1153;-59
2022/05/25 02:05:50;;;;;;;;;;;26.00;47.00;;;;;;1591783;73;1909;-60
2022/05/25 02:08:10;;;;;;;;;;;26.00;47.00;;;;;;1599050;73;1915;-60
2022/05/25 02:10:17;;;;;;;;;;;26.00;47.00;;;;;;1577117;73;1140;-58
2022/05/25 02:12:20;;;;;;;;;;;26.10;46.90;;;;;;1599209;73;1579;-60
2022/05/25 02:14:39;;;;;;;;;;;26.10;46.90;;;;;;1582074;73;664;-58
2022/05/25 02:16:42;;;;;;;;;;;26.10;46.90;;;;;;1592848;73;783;-58
2022/05/25 02:18:49;;;;;;;;;;;26.00;46.90;;;;;;1572598;73;748;-58
2022/05/25 02:20:52;;;;;;;;;;;26.00;46.90;;;;;;1596809;72;1151;-59
2022/05/25 02:22:56;;;;;;;;;;;26.10;46.90;;;;;;1581030;73;1899;-60
2022/05/25 02:25:15;;;;;;;;;;;26.00;46.90;;;;;;1599839;73;1815;-59
2022/05/25 02:27:18;;;;;;;;;;;26.10;46.90;;;;;;1582688;73;1949;-60
2022/05/25 02:29:22;;;;;;;;;;;26.00;46.80;;;;;;1582270;73;1884;-59
2022/05/25 02:31:25;;;;;;;;;;;26.00;46.80;;;;;;1591050;73;1456;-61
2022/05/25 02:33:31;;;;;;;;;;;26.10;46.80;;;;;;1598160;73;718;-61
2022/05/25 02:35:34;;;;;;;;;;;26.10;46.80;;;;;;1579216;73;786;-60
2022/05/25 02:37:35;;;;;;;;;;;26.10;46.80;;;;;;1589061;73;709;-59
2022/05/25 02:39:37;;;;;;;;;;;26.10;46.80;;;;;;1593310;73;1561;-60
2022/05/25 02:41:50;;;;;;;;;;;26.10;46.80;;;;;;1578079;73;1124;-60
2022/05/25 02:43:52;;;;;;;;;;;26.00;46.80;;;;;;1575368;73;965;-60
2022/05/25 02:45:54;;;;;;;;;;;26.00;46.80;;;;;;1585803;73;1939;-60
2022/05/25 02:47:56;;;;;;;;;;;26.00;46.80;;;;;;1591596;73;758;-60
2022/05/25 02:49:58;;;;;;;;;;;26.10;46.70;;;;;;1593196;73;1151;-60
2022/05/25 02:51:59;;;;;;;;;;;26.00;46.70;;;;;;1590218;73;723;-60
2022/05/25 02:54:01;;;;;;;;;;;26.00;46.70;;;;;;1569212;73;1561;-59
2022/05/25 02:56:03;;;;;;;;;;;26.00;46.70;;;;;;1584721;73;755;-59
2022/05/25 02:58:05;;;;;;;;;;;26.10;46.60;;;;;;1598205;73;631;-58
2022/05/25 03:00:07;;;;;;;;;;;26.00;46.50;;;;;;1585188;73;1165;-60
2022/05/25 03:02:09;;;;;;;;;;;26.10;46.30;;;;;;1586803;73;662;-56
2022/05/25 03:04:11;;;;;;;;;;;26.00;46.40;;;;;;1589726;73;763;-57
2022/05/25 03:06:13;;;;;;;;;;;26.00;46.50;;;;;;1613106;73;1948;-58
2022/05/25 03:08:15;;;;;;;;;;;26.00;46.50;;;;;;1585040;73;1599;-58
2022/05/25 03:10:17;;;;;;;;;;;25.90;46.00;;;;;;1585429;73;1290;-58
2022/05/25 03:12:20;;;;;;;;;;;25.90;46.00;;;;;;1581493;73;784;-57
2022/05/25 03:14:21;;;;;;;;;;;26.00;46.60;;;;;;1610041;73;844;-58
2022/05/25 03:16:23;;;;;;;;;;;25.90;46.10;;;;;;1598610;73;683;-58
2022/05/25 03:18:25;;;;;;;;;;;25.90;46.10;;;;;;1596376;73;698;-58
2022/05/25 03:20:27;;;;;;;;;;;25.90;46.10;;;;;;1585349;73;1168;-57
2022/05/25 03:22:29;;;;;;;;;;;25.90;46.20;;;;;;1582536;73;1585;-58
2022/05/25 03:24:31;;;;;;;;;;;26.00;46.70;;;;;;1588909;73;674;-58
2022/05/25 03:26:33;;;;;;;;;;;25.90;46.20;;;;;;1590174;73;1945;-58
2022/05/25 03:28:35;;;;;;;;;;;25.90;46.20;;;;;;1591062;73;723;-58
2022/05/25 03:30:37;;;;;;;;;;;25.90;46.30;;;;;;1596478;73;1159;-58
2022/05/25 03:32:39;;;;;;;;;;;25.90;46.30;;;;;;1582174;73;761;-58
2022/05/25 03:34:41;;;;;;;;;;;25.90;46.20;;;;;;1594164;73;683;-58
2022/05/25 03:36:42;;;;;;;;;;;25.80;46.20;;;;;;1577257;73;1668;-57
2022/05/25 03:38:44;;;;;;;;;;;25.90;46.30;;;;;;1580065;73;227078;-70
2022/05/25 03:40:46;;;;;;;;;;;25.90;46.30;;;;;;1590880;75;801;-70
2022/05/25 03:42:48;;;;;;;;;;;25.80;46.30;;;;;;1590416;73;747;-71
2022/05/25 03:44:50;;;;;;;;;;;25.80;46.30;;;;;;1594383;73;699;-69
2022/05/25 03:46:52;;;;;;;;;;;25.70;46.30;;;;;;1591171;73;1942;-70
2022/05/25 03:48:54;;;;;;;;;;;25.70;46.40;;;;;;1586953;73;1186;-69
2022/05/25 03:50:56;;;;;;;;;;;25.80;46.30;;;;;;1571069;75;1575;-67
2022/05/25 03:52:57;;;;;;;;;;;25.80;46.30;;;;;;1574213;75;734;-69
2022/05/25 03:54:59;;;;;;;;;;;25.80;46.30;;;;;;1554208;75;577;-70
2022/05/25 03:57:01;;;;;;;;;;;25.70;46.40;;;;;;1555725;75;706;-72
2022/05/25 03:59:03;;;;;;;;;;;25.80;46.40;;;;;;1562874;75;1129;-70
2022/05/25 04:01:05;;;;;;;;;;;25.80;46.50;;;;;;1568311;75;708;-71
2022/05/25 04:03:07;;;;;;;;;;;25.80;46.40;;;;;;1568379;75;680;-69
2022/05/25 04:05:09;;;;;;;;;;;25.80;46.40;;;;;;1548266;76;1742;-69
2022/05/25 04:07:11;;;;;;;;;;;25.80;46.40;;;;;;1576501;75;1902;-69
2022/05/25 04:09:13;;;;;;;;;;;25.80;46.40;;;;;;1564113;75;1153;-70
2022/05/25 04:11:15;;;;;;;;;;;25.70;46.40;;;;;;1565515;75;726;-68
2022/05/25 04:13:17;;;;;;;;;;;25.70;46.30;;;;;;1573883;75;687;-69
2022/05/25 04:15:21;;;;;;;;;;;25.70;46.40;;;;;;1565299;75;672;-68
2022/05/25 04:17:22;;;;;;;;;;;25.70;46.50;;;;;;1581310;75;1512;-70
2022/05/25 04:19:24;;;;;;;;;;;25.70;46.50;;;;;;1572106;75;1128;-69
2022/05/25 04:21:26;;;;;;;;;;;25.70;46.40;;;;;;1565616;75;633;-69
2022/05/25 04:23:28;;;;;;;;;;;25.70;46.50;;;;;;1568820;75;666;-69
2022/05/25 04:25:30;;;;;;;;;;;25.80;46.50;;;;;;1574053;75;699;-68
2022/05/25 04:27:32;;;;;;;;;;;25.70;46.40;;;;;;1579239;75;1957;-67
2022/05/25 04:29:36;;;;;;;;;;;25.80;46.40;;;;;;1579482;75;1136;-70
2022/05/25 04:31:38;;;;;;;;;;;25.70;46.40;;;;;;1571397;75;1498;-70
2022/05/25 04:33:40;;;;;;;;;;;25.80;46.40;;;;;;1565729;75;670;-70
2022/05/25 04:35:42;;;;;;;;;;;25.70;46.40;;;;;;1574120;75;762;-71
2022/05/25 04:37:52;;;;;;;;;;;25.70;46.50;;;;;;1557049;75;733;-71
2022/05/25 04:39:53;;;;;;;;;;;25.80;46.40;;;;;;1554167;75;1601;-70
2022/05/25 04:41:55;;;;;;;;;;;25.70;46.40;;;;;;1572785;75;692;-71
2022/05/25 04:43:58;;;;;;;;;;;25.80;46.40;;;;;;1558903;75;680;-70
2022/05/25 04:46:01;;;;;;;;;;;25.80;46.40;;;;;;1555047;75;1572;-72
2022/05/25 04:48:03;;;;;;;;;;;25.80;46.40;;;;;;1568411;75;1923;-72
2022/05/25 04:50:07;;;;;;;;;;;25.80;46.50;;;;;;1583602;75;754;-74
2022/05/25 04:52:08;;;;;;;;;;;25.80;46.50;;;;;;1573416;75;670;-70
2022/05/25 04:54:10;;;;;;;;;;;25.80;46.50;;;;;;1581875;75;733;-70
2022/05/25 04:58:37;;;;;;;;;;;25.80;46.50;;;;;;1575789;75;1621;-73
2022/05/25 05:00:39;;;;;;;;;;;25.80;46.50;;;;;;1554956;76;1563;-72
2022/05/25 05:02:41;;;;;;;;;;;25.80;46.50;;;;;;1574204;75;700;-68
2022/05/25 05:04:43;;;;;;;;;;;25.80;46.40;;;;;;1581209;75;742;-69
2022/05/25 05:06:45;;;;;;;;;;;25.90;46.30;;;;;;1541292;76;1936;-68
2022/05/25 05:08:46;;;;;;;;;;;26.00;46.80;;;;;;1542301;76;1122;-68
2022/05/25 05:10:49;;;;;;;;;;;25.90;46.00;;;;;;1571412;75;643;-68
2022/05/25 05:12:51;;;;;;;;;;;25.90;46.10;;;;;;1556910;76;769;-69
2022/05/25 05:14:52;;;;;;;;;;;26.00;46.60;;;;;;1582424;75;1442;-68
2022/05/25 05:16:55;;;;;;;;;;;26.00;46.70;;;;;;1582849;75;746;-62
2022/05/25 05:18:57;;;;;;;;;;;25.90;46.10;;;;;;1573084;75;1152;-63
2022/05/25 05:20:59;;;;;;;;;;;26.10;46.50;;;;;;1559092;75;693;-63
2022/05/25 05:23:01;;;;;;;;;;;26.00;46.50;;;;;;1570435;75;659;-62
2022/05/25 05:25:03;;;;;;;;;;;26.00;46.50;;;;;;1566622;75;713;-62
2022/05/25 05:27:06;;;;;;;;;;;25.90;45.90;;;;;;1566925;75;1922;-62
2022/05/25 05:29:08;;;;;;;;;;;25.90;45.90;;;;;;1582088;75;1547;-63
2022/05/25 05:31:10;;;;;;;;;;;25.90;45.90;;;;;;1579829;75;747;-62
2022/05/25 05:33:12;;;;;;;;;;;25.90;45.90;;;;;;1584099;75;705;-62
2022/05/25 05:35:13;;;;;;;;;;;25.80;45.90;;;;;;1580421;75;775;-64
2022/05/25 05:37:19;;;;;;;;;;;25.90;45.90;;;;;;1545224;76;675;-69
2022/05/25 05:39:22;;;;;;;;;;;25.90;46.00;;;;;;1556719;75;1121;-65
2022/05/25 05:41:24;;;;;;;;;;;25.90;45.90;;;;;;1572763;75;714;-65
2022/05/25 05:43:25;;;;;;;;;;;25.90;45.90;;;;;;1575503;75;1565;-66
2022/05/25 05:45:28;;;;;;;;;;;25.90;45.80;;;;;;1575781;75;782;-67
2022/05/25 05:47:35;;;;;;;;;;;25.80;45.80;;;;;;1558001;75;1974;-66
2022/05/25 05:49:37;;;;;;;;;;;25.90;45.80;;;;;;1590866;74;1142;-66
2022/05/25 05:51:39;;;;;;;;;;;25.80;45.70;;;;;;1548461;76;682;-65
2022/05/25 05:53:41;;;;;;;;;;;25.70;45.70;;;;;;1558051;75;607;-64
2022/05/25 05:55:43;;;;;;;;;;;25.70;45.70;;;;;;1549765;76;1546;-63
2022/05/25 05:57:45;;;;;;;;;;;25.80;45.60;;;;;;1572557;75;761;-64
2022/05/25 05:59:47;;;;;;;;;;;25.70;45.60;;;;;;1572439;75;1088;-65
2022/05/25 06:01:49;;;;;;;;;;;25.70;45.60;;;;;;1584541;75;834;-64
2022/05/25 06:03:51;;;;;;;;;;;25.70;45.60;;;;;;1583510;75;677;-66
2022/05/25 06:05:53;;;;;;;;;;;25.70;45.50;;;;;;1559740;75;730;-64
2022/05/25 06:07:54;;;;;;;;;;;25.60;45.40;;;;;;1551361;75;1935;-65
2022/05/25 06:09:56;;;;;;;;;;;25.60;45.40;;;;;;1573973;75;1367;-64
2022/05/25 06:11:58;;;;;;;;;;;25.60;45.30;;;;;;1561252;75;783;-63
2022/05/25 06:14:00;;;;;;;;;;;25.50;45.20;;;;;;1564530;75;659;-64
2022/05/25 06:20:42;;;;;;;;;;;25.50;45.20;;;;;;1552643;75;656;-69
2022/05/25 06:22:44;;;;;;;;;;;25.50;45.20;;;;;;1561597;75;706;-68
2022/05/25 06:24:46;;;;;;;;;;;25.50;45.00;;;;;;1571156;75;1570;-70
2022/05/25 06:26:48;;;;;;;;;;;25.40;44.80;;;;;;1575429;75;700;-70
2022/05/25 06:28:50;;;;;;;;;;;25.50;44.40;;;;;;1568882;75;1942;-70
2022/05/25 06:30:53;;;;;;;;;;;25.50;43.90;;;;;;1565017;75;729;-70
2022/05/25 06:32:55;;;;;;;;;;;25.50;43.80;;;;;;1574735;75;756;-70
2022/05/25 06:34:57;;;;;;;;;;;25.40;43.40;;;;;;1570603;75;645;-72
2022/05/25 06:36:59;;;;;;;;;;;25.40;43.10;;;;;;1552552;76;648;-69
2022/05/25 06:39:01;;;;;;;;;;;25.30;43.10;;;;;;1555704;76;1569;-70
2022/05/25 06:41:03;;;;;;;;;;;25.30;42.80;;;;;;1585402;75;772;-69
2022/05/25 06:43:05;;;;;;;;;;;25.30;42.80;;;;;;1563563;75;770;-69
2022/05/25 06:45:07;;;;;;;;;;;25.30;42.60;;;;;;1554761;75;762;-67
2022/05/25 06:47:09;;;;;;;;;;;25.30;42.50;;;;;;1552875;76;883;-70
2022/05/25 06:49:11;;;;;;;;;;;25.30;42.40;;;;;;1548605;76;1912;-68
2022/05/25 06:51:17;;;;;;;;;;;25.20;42.20;;;;;;1571974;75;767;-71
2022/05/25 06:53:19;;;;;;;;;;;25.20;42.20;;;;;;1560860;75;1606;-70
2022/05/25 06:55:21;;;;;;;;;;;25.20;42.10;;;;;;1578072;75;696;-70
2022/05/25 06:57:25;;;;;;;;;;;25.10;42.00;;;;;;1574668;75;628;-69
2022/05/25 06:59:27;;;;;;;;;;;25.20;41.90;;;;;;1539352;76;1095;-70
2022/05/25 07:01:28;;;;;;;;;;;25.10;42.00;;;;;;1557841;75;663;-69
2022/05/25 07:03:31;;;;;;;;;;;25.10;41.90;;;;;;1583071;75;715;-71
2022/05/25 07:05:33;;;;;;;;;;;25.10;41.90;;;;;;1585229;75;676;-70
2022/05/25 07:07:37;;;;;;;;;;;25.10;41.90;;;;;;1581130;75;1925;-67
2022/05/25 07:09:39;;;;;;;;;;;25.10;41.90;;;;;;1573251;75;1665;-70
2022/05/25 07:11:42;;;;;;;;;;;25.10;41.90;;;;;;1558429;75;750;-70
2022/05/25 07:13:44;;;;;;;;;;;25.10;41.90;;;;;;1579268;75;667;-71
2022/05/25 07:15:46;;;;;;;;;;;25.10;41.80;;;;;;1545660;76;770;-69
2022/05/25 07:17:48;;;;;;;;;;;25.10;41.90;;;;;;1570097;75;725;-67
2022/05/25 07:19:50;;;;;;;;;;;25.10;41.90;;;;;;1576718;75;1152;-69
2022/05/25 07:21:52;;;;;;;;;;;25.10;41.80;;;;;;1566419;75;1358;-69
2022/05/25 07:23:55;;;;;;;;;;;25.10;41.80;;;;;;1549650;76;669;-70
2022/05/25 07:25:56;;;;;;;;;;;25.10;41.70;;;;;;1580655;75;718;-69
2022/05/25 07:27:58;;;;;;;;;;;25.20;41.60;;;;;;1581088;75;1927;-69
2022/05/25 07:30:00;;;;;;;;;;;25.10;41.50;;;;;;1556606;76;747;-71
2022/05/25 07:32:03;;;;;;;;;;;25.20;41.30;;;;;;1557634;76;808;-70
2022/05/25 07:34:08;;;;;;;;;;;25.20;41.00;;;;;;1553434;76;720;-69
2022/05/25 07:36:10;;;;;;;;;;;25.20;40.70;;;;;;1557652;76;1885;-69
2022/05/25 07:38:12;;;;;;;;;;;25.30;40.30;;;;;;1556851;75;1120;-71
2022/05/25 07:40:15;;;;;;;;;;;25.20;40.20;;;;;;1566798;75;730;-69
2022/05/25 07:42:18;;;;;;;;;;;25.20;40.30;;;;;;1571291;75;756;-68
2022/05/25 07:44:21;;;;;;;;;;;25.20;40.40;;;;;;1582432;75;719;-70
2022/05/25 07:46:24;;;;;;;;;;;25.10;40.50;;;;;;1564706;75;790;-71
2022/05/25 07:48:26;;;;;;;;;;;25.10;40.50;;;;;;1566104;75;1935;-68
2022/05/25 07:50:28;;;;;;;;;;;25.10;40.80;;;;;;1578243;75;647;-69
2022/05/25 07:52:31;;;;;;;;;;;25.00;41.00;;;;;;1579232;75;621;-70
2022/05/25 07:54:33;;;;;;;;;;;25.00;41.10;;;;;;1581026;75;672;-70
2022/05/25 07:56:36;;;;;;;;;;;25.00;41.20;;;;;;1573420;74;716;-70
2022/05/25 07:58:38;;;;;;;;;;;25.00;41.30;;;;;;1554235;76;1142;-69
2022/05/25 08:00:39;;;;;;;;;;;25.00;41.30;;;;;;1560632;75;695;-70
2022/05/25 08:07:23;;;;;;;;;;;25.00;41.60;;;;;;1555122;76;1639;-68
2022/05/25 08:09:25;;;;;;;;;;;24.90;41.70;;;;;;1555526;76;1950;-69
2022/05/25 08:11:29;;;;;;;;;;;25.00;41.80;;;;;;1585604;75;671;-70
2022/05/25 08:13:31;;;;;;;;;;;24.90;41.80;;;;;;1569384;75;699;-68
2022/05/25 08:15:33;;;;;;;;;;;25.00;41.80;;;;;;1573870;75;675;-68
2022/05/25 08:17:35;;;;;;;;;;;25.00;41.80;;;;;;1577077;75;1576;-70
2022/05/25 08:19:38;;;;;;;;;;;25.00;41.90;;;;;;1582989;75;1073;-70
2022/05/25 08:21:40;;;;;;;;;;;24.90;41.80;;;;;;1573543;75;702;-69
2022/05/25 08:23:42;;;;;;;;;;;24.90;41.80;;;;;;1555678;75;774;-71
2022/05/25 08:25:44;;;;;;;;;;;24.90;41.80;;;;;;1559923;75;675;-68
2022/05/25 08:27:46;;;;;;;;;;;25.00;41.90;;;;;;1556777;75;902;-71
2022/05/25 08:29:48;;;;;;;;;;;24.90;42.00;;;;;;1567776;75;1901;-68
2022/05/25 08:31:52;;;;;;;;;;;24.90;41.90;;;;;;1564400;75;1542;-68
2022/05/25 08:33:53;;;;;;;;;;;24.90;42.00;;;;;;1580981;75;1778;-68
2022/05/25 08:35:55;;;;;;;;;;;24.90;42.00;;;;;;1543711;76;691;-71
2022/05/25 08:37:58;;;;;;;;;;;24.90;41.90;;;;;;1583626;75;1112;-71
2022/05/25 08:40:00;;;;;;;;;;;24.90;41.80;;;;;;1578502;75;1541;-70
2022/05/25 08:42:05;;;;;;;;;;;24.90;41.70;;;;;;1568374;75;813;-66
2022/05/25 08:44:07;;;;;;;;;;;24.90;41.60;;;;;;1581368;75;708;-70
2022/05/25 08:46:13;;;;;;;;;;;24.90;41.70;;;;;;1525691;77;1376;-69
2022/05/25 08:48:13;;;;;;;;;;;24.90;41.50;;;;;;1554311;75;1921;-68
2022/05/25 08:50:15;;;;;;;;;;;24.90;41.50;;;;;;1553668;76;713;-69
2022/05/25 08:52:25;;;;;;;;;;;24.90;41.40;;;;;;1557357;74;757;-68
2022/05/25 08:54:27;;;;;;;;;;;24.80;41.30;;;;;;1560369;75;690;-70
2022/05/25 08:56:46;;;;;;;;;;;24.90;41.30;;;;;;1558043;76;715;-70
2022/05/25 08:58:52;;;;;;;;;;;24.90;41.20;;;;;;1557384;75;1621;-70
2022/05/25 09:00:54;;;;;;;;;;;24.90;41.10;;;;;;1550151;76;1024;-69
2022/05/25 09:03:01;;;;;;;;;;;24.90;41.10;;;;;;1573608;74;703;-71
2022/05/25 09:05:04;;;;;;;;;;;24.90;41.10;;;;;;1585076;74;606;-69
2022/05/25 09:07:08;;;;;;;;;;;24.90;40.90;;;;;;1552140;76;898;-69
2022/05/25 09:09:14;;;;;;;;;;;24.90;41.00;;;;;;1549551;76;1905;-71
2022/05/25 09:11:18;;;;;;;;;;;24.90;41.00;;;;;;1553270;76;2334;-71
2022/05/25 09:13:23;;;;;;;;;;;24.90;40.90;;;;;;1543510;76;1918;-72
2022/05/25 09:15:35;;;;;;;;;;;24.70;40.80;;;;;;1544437;76;764;-69
2022/05/25 09:17:43;;;;;;;;;;;24.80;40.80;;;;;;1576912;75;694;-69
2022/05/25 09:19:45;;;;;;;;;;;24.80;40.60;;;;;;1579709;75;1082;-69
2022/05/25 09:21:54;;;;;;;;;;;24.90;40.70;;;;;;1549421;76;675;-69
2022/05/25 09:23:56;;;;;;;;;;;24.90;40.70;;;;;;1581450;75;701;-73
2022/05/25 09:25:58;;;;;;;;;;;24.90;40.60;;;;;;1571852;74;773;-71
2022/05/25 09:28:07;;;;;;;;;;;24.90;40.60;;;;;;1580943;75;1424;-71
2022/05/25 09:30:08;;;;;;;;;;;24.90;40.50;;;;;;1578445;75;1911;-69
2022/05/25 09:32:28;;;;;;;;;;;24.90;40.50;;;;;;1560466;75;731;-70
2022/05/25 09:34:44;;;;;;;;;;;24.90;40.50;;;;;;1560416;75;693;-69
2022/05/25 09:36:48;;;;;;;;;;;24.90;40.50;;;;;;1570943;74;762;-68
2022/05/25 09:39:04;;;;;;;;;;;24.90;40.50;;;;;;1548067;75;1159;-71
2022/05/25 09:41:06;;;;;;;;;;;24.80;40.50;;;;;;1576335;75;1219;-73
2022/05/25 09:43:12;;;;;;;;;;;24.90;40.70;;;;;;1580591;75;800;-70
2022/05/25 09:45:14;;;;;;;;;;;24.90;40.70;;;;;;1585137;75;1080;-70
2022/05/25 09:47:24;;;;;;;;;;;24.90;40.70;;;;;;1571809;75;705;-70
2022/05/25 09:49:30;;;;;;;;;;;25.00;40.70;;;;;;1551860;76;1929;-70
2022/05/25 09:51:43;;;;;;;;;;;25.00;40.60;;;;;;1555778;76;720;-70
2022/05/25 09:53:47;;;;;;;;;;;25.00;40.60;;;;;;1572866;75;685;-70
2022/05/25 09:55:52;;;;;;;;;;;25.00;40.60;;;;;;1539129;76;2030;-72
2022/05/25 09:57:56;;;;;;;;;;;25.00;40.70;;;;;;1547285;75;1151;-70
2022/05/25 10:00:03;;;;;;;;;;;25.00;40.60;;;;;;1560961;75;677;-71
2022/05/25 10:02:04;;;;;;;;;;;25.10;40.50;;;;;;1576614;74;1144;-71
2022/05/25 10:04:06;;;;;;;;;;;25.00;40.40;;;;;;1577509;75;1620;-71
2022/05/25 10:06:27;;;;;;;;;;;25.10;40.50;;;;;;1527230;77;710;-70
2022/05/25 10:08:37;;;;;;;;;;;25.00;40.50;;;;;;1544499;76;1920;-70
2022/05/25 10:10:39;;;;;;;;;;;25.10;40.40;;;;;;1572396;75;1643;-68
2022/05/25 10:12:42;;;;;;;;;;;25.10;40.00;;;;;;1573296;75;1891;-69
2022/05/25 10:14:46;;;;;;;;;;;25.10;39.90;;;;;;1566846;75;739;-71
2022/05/25 10:16:47;;;;;;;;;;;25.00;39.90;;;;;;1563561;75;1234;-69
2022/05/25 10:18:49;;;;;;;;;;;25.00;40.10;;;;;;1566848;75;1193;-69
2022/05/25 10:20:51;;;;;;;;;;;25.00;40.20;;;;;;1558669;75;698;-69
2022/05/25 10:22:55;;;;;;;;;;;25.10;40.10;;;;;;1554926;75;778;-69
2022/05/25 10:25:01;;;;;;;;;;;25.10;39.70;;;;;;1567117;75;1871;-69
2022/05/25 10:27:03;;;;;;;;;;;25.10;39.40;;;;;;1572010;75;749;-75
2022/05/25 10:29:12;;;;;;;;;;;25.00;39.50;;;;;;1570816;74;1958;-66
2022/05/25 10:38:18;;;;;;;;;;;24.90;39.70;;;;;;1566348;75;1632;-70
2022/05/25 10:40:21;;;;;;;;;;;24.90;39.90;;;;;;1571126;75;929;-69
2022/05/25 10:42:25;;;;;;;;;;;25.00;39.80;;;;;;1552251;75;800;-69
2022/05/25 10:44:27;;;;;;;;;;;25.00;39.90;;;;;;1583550;75;766;-70
2022/05/25 10:46:29;;;;;;;;;;;24.90;39.90;;;;;;1552424;76;709;-70
2022/05/25 10:48:42;;;;;;;;;;;24.90;39.60;;;;;;1566948;75;1155;-72
2022/05/25 10:50:48;;;;;;;;;;;25.00;39.40;;;;;;1568866;75;687;-70
2022/05/25 10:52:52;;;;;;;;;;;24.80;39.50;;;;;;1567398;75;1695;-71
2022/05/25 10:54:56;;;;;;;;;;;24.90;39.70;;;;;;1577128;75;944;-70
2022/05/25 10:56:59;;;;;;;;;;;24.90;39.60;;;;;;1580919;75;1671;-71
2022/05/25 10:59:12;;;;;;;;;;;24.90;39.50;;;;;;1573034;75;1085;-69
2022/05/25 11:01:17;;;;;;;;;;;25.00;38.40;;;;;;1562593;75;922;-71
2022/05/25 11:03:24;;;;;;;;;;;24.90;38.90;;;;;;1574982;75;2202;-69
2022/05/25 11:05:34;;;;;;;;;;;24.90;39.10;;;;;;1557566;75;1540;-68
2022/05/25 11:07:38;;;;;;;;;;;24.90;39.20;;;;;;1555566;76;1906;-69
2022/05/25 11:09:53;;;;;;;;;;;24.80;39.20;;;;;;1556988;76;1946;-70
2022/05/25 11:12:13;;;;;;;;;;;24.80;39.30;;;;;;1544168;76;1910;-69
2022/05/25 11:14:36;;;;;;;;;;;24.90;39.40;;;;;;1572739;75;675;-75
2022/05/25 11:16:47;;;;;;;;;;;24.90;39.40;;;;;;1567633;75;1665;-69
2022/05/25 11:18:51;;;;;;;;;;;24.90;39.30;;;;;;1546819;75;1710;-71
2022/05/25 11:20:57;;;;;;;;;;;24.90;39.60;;;;;;1573809;75;1927;-71
2022/05/25 11:23:01;;;;;;;;;;;24.80;39.70;;;;;;1566428;75;1158;-68
2022/05/25 11:25:21;;;;;;;;;;;24.90;39.90;;;;;;1568439;75;684;-69
2022/05/25 11:27:40;;;;;;;;;;;24.80;39.90;;;;;;1565080;75;763;-69
2022/05/25 11:29:52;;;;;;;;;;;24.80;40.00;;;;;;1566459;74;1953;-70
2022/05/25 11:32:08;;;;;;;;;;;24.90;40.10;;;;;;1548828;76;1670;-69
2022/05/25 11:34:24;;;;;;;;;;;24.80;40.10;;;;;;1580000;74;1574;-72
2022/05/25 11:36:27;;;;;;;;;;;24.90;40.30;;;;;;1572142;75;797;-70
2022/05/25 11:38:32;;;;;;;;;;;24.80;40.30;;;;;;1550233;76;1852;-68
2022/05/25 11:40:54;;;;;;;;;;;24.80;40.40;;;;;;1573294;75;2027;-69
2022/05/25 11:42:57;;;;;;;;;;;24.90;40.50;;;;;;1548424;76;2085;-69
2022/05/25 11:45:07;;;;;;;;;;;24.90;40.60;;;;;;1573650;75;698;-69
2022/05/25 11:47:13;;;;;;;;;;;24.90;40.60;;;;;;1572853;74;2025;-69
2022/05/25 11:49:35;;;;;;;;;;;24.90;40.60;;;;;;1570796;75;1930;-72
2022/05/25 11:51:52;;;;;;;;;;;24.90;40.70;;;;;;1573470;74;647;-69
2022/05/25 11:53:56;;;;;;;;;;;24.90;40.80;;;;;;1569236;75;679;-73
2022/05/25 11:56:16;;;;;;;;;;;25.00;40.90;;;;;;1567065;74;1038;-73
2022/05/25 11:58:26;;;;;;;;;;;25.00;40.80;;;;;;1559512;76;1154;-70
2022/05/25 12:00:29;;;;;;;;;;;25.00;40.90;;;;;;1577505;75;742;-72
2022/05/25 12:02:36;;;;;;;;;;;25.00;40.90;;;;;;1553843;76;2080;-67
2022/05/25 12:04:58;;;;;;;;;;;25.00;40.90;;;;;;1558425;75;1856;-67
2022/05/25 12:07:08;;;;;;;;;;;25.10;40.80;;;;;;1571076;75;1495;-67
2022/05/25 12:09:11;;;;;;;;;;;25.00;40.90;;;;;;1570563;75;1939;-66
2022/05/25 12:11:15;;;;;;;;;;;25.10;40.70;;;;;;1575449;75;734;-67
2022/05/25 12:13:35;;;;;;;;;;;25.10;40.70;;;;;;1559127;75;1267;-69
2022/05/25 12:15:48;;;;;;;;;;;25.00;40.80;;;;;;1557250;76;643;-68
2022/05/25 12:17:54;;;;;;;;;;;25.10;40.80;;;;;;1572523;75;782;-69
2022/05/25 12:19:56;;;;;;;;;;;25.00;40.80;;;;;;1549819;76;1685;-68
2022/05/25 12:22:00;;;;;;;;;;;25.00;40.90;;;;;;1572233;74;707;-68
2022/05/25 12:24:03;;;;;;;;;;;25.10;41.00;;;;;;1557258;76;1296;-70
2022/05/25 12:26:16;;;;;;;;;;;25.00;41.00;;;;;;1580685;75;708;-68
2022/05/25 12:28:18;;;;;;;;;;;25.00;41.10;;;;;;1578183;75;1811;-67
2022/05/25 12:30:21;;;;;;;;;;;25.00;41.20;;;;;;1581302;75;1948;-68
2022/05/25 12:32:23;;;;;;;;;;;25.00;41.20;;;;;;1563313;75;1837;-68
2022/05/25 12:34:31;;;;;;;;;;;25.00;41.20;;;;;;1567405;75;690;-68
2022/05/25 12:36:33;;;;;;;;;;;25.00;41.30;;;;;;1571166;75;776;-70
2022/05/25 12:38:35;;;;;;;;;;;25.00;41.30;;;;;;1582049;75;1111;-67
2022/05/25 12:40:44;;;;;;;;;;;25.00;41.30;;;;;;1580413;75;757;-68
2022/05/25 12:42:49;;;;;;;;;;;25.00;41.30;;;;;;1566356;75;715;-68